createdAt,value
2017-04-20T00:00:32.996Z,1011.57
2017-04-20T00:01:33.029Z,1011.59
2017-04-20T00:02:33.053Z,1011.62
2017-04-20T00:03:33.073Z,1011.61
2017-04-20T00:04:33.108Z,1011.6
2017-04-20T00:05:33.132Z,1011.62
2017-04-20T00:06:33.161Z,1011.59
2017-04-20T00:07:33.187Z,1011.58
2017-04-20T00:08:33.210Z,1011.57
2017-04-20T00:09:33.490Z,1011.64
2017-04-20T00:10:33.268Z,1011.59
2017-04-20T00:11:33.293Z,1011.58
2017-04-20T00:12:33.319Z,1011.56
2017-04-20T00:13:33.342Z,1011.55
2017-04-20T00:14:33.621Z,1011.53
2017-04-20T00:15:33.398Z,1011.5
2017-04-20T00:16:33.424Z,1011.5
2017-04-20T00:17:33.453Z,1011.52
2017-04-20T00:18:33.478Z,1011.51
2017-04-20T00:19:33.753Z,1011.52
2017-04-20T00:20:33.531Z,1011.47
2017-04-20T00:21:33.553Z,1011.47
2017-04-20T00:22:33.577Z,1011.46
2017-04-20T00:23:33.609Z,1011.43
2017-04-20T00:24:33.881Z,1011.43
2017-04-20T00:25:33.659Z,1011.43
2017-04-20T00:26:33.687Z,1011.36
2017-04-20T00:27:33.713Z,1011.4
2017-04-20T00:28:33.742Z,1011.41
2017-04-20T00:29:33.762Z,1011.44
2017-04-20T00:30:33.790Z,1011.43
2017-04-20T00:31:33.819Z,1011.39
2017-04-20T00:32:33.843Z,1011.42
2017-04-20T00:33:33.872Z,1011.43
2017-04-20T00:34:33.898Z,1011.44
2017-04-20T00:35:33.922Z,1011.46
2017-04-20T00:36:33.950Z,1011.46
2017-04-20T00:37:33.971Z,1011.44
2017-04-20T00:38:33.998Z,1011.48
2017-04-20T00:39:34.029Z,1011.44
2017-04-20T00:40:34.048Z,1011.45
2017-04-20T00:41:34.083Z,1011.48
2017-04-20T00:42:34.107Z,1011.51
2017-04-20T00:43:34.132Z,1011.53
2017-04-20T00:44:34.161Z,1011.5
2017-04-20T00:45:34.186Z,1011.49
2017-04-20T00:46:34.211Z,1011.45
2017-04-20T00:47:34.238Z,1011.47
2017-04-20T00:48:34.264Z,1011.46
2017-04-20T00:49:34.288Z,1011.46
2017-04-20T00:50:34.318Z,1011.45
2017-04-20T00:51:34.342Z,1011.51
2017-04-20T00:52:34.366Z,1011.49
2017-04-20T00:53:34.395Z,1011.51
2017-04-20T00:54:34.421Z,1011.51
2017-04-20T00:55:34.445Z,1011.51
2017-04-20T00:56:34.474Z,1011.49
2017-04-20T00:57:34.499Z,1011.46
2017-04-20T00:58:34.528Z,1011.5
2017-04-20T00:59:34.552Z,1011.47
2017-04-20T01:00:34.573Z,1011.5
2017-04-20T01:01:34.606Z,1011.51
2017-04-20T01:02:34.631Z,1011.49
2017-04-20T01:03:34.655Z,1011.5
2017-04-20T01:04:34.683Z,1011.44
2017-04-20T01:05:34.710Z,1011.47
2017-04-20T01:06:34.734Z,1011.44
2017-04-20T01:07:34.762Z,1011.48
2017-04-20T01:08:34.786Z,1011.44
2017-04-20T01:09:34.816Z,1011.47
2017-04-20T01:10:34.836Z,1011.45
2017-04-20T01:11:34.860Z,1011.42
2017-04-20T01:12:34.895Z,1011.45
2017-04-20T01:13:34.919Z,1011.45
2017-04-20T01:14:34.944Z,1011.44
2017-04-20T01:15:34.968Z,1011.47
2017-04-20T01:16:34.997Z,1011.43
2017-04-20T01:17:35.021Z,1011.41
2017-04-20T01:18:35.047Z,1011.41
2017-04-20T01:19:35.075Z,1011.38
2017-04-20T01:20:35.099Z,1011.4
2017-04-20T01:21:35.125Z,1011.38
2017-04-20T01:22:35.149Z,1011.4
2017-04-20T01:23:35.177Z,1011.41
2017-04-20T01:24:35.201Z,1011.38
2017-04-20T01:25:35.231Z,1011.36
2017-04-20T01:26:35.256Z,1011.37
2017-04-20T01:27:35.276Z,1011.4
2017-04-20T01:28:35.305Z,1011.36
2017-04-20T01:29:35.334Z,1011.41
2017-04-20T01:30:35.359Z,1011.44
2017-04-20T01:31:35.384Z,1011.43
2017-04-20T01:32:35.413Z,1011.4
2017-04-20T01:33:35.438Z,1011.4
2017-04-20T01:34:35.458Z,1011.44
2017-04-20T01:35:35.491Z,1011.42
2017-04-20T01:36:35.515Z,1011.42
2017-04-20T01:37:35.541Z,1011.41
2017-04-20T01:38:35.565Z,1011.42
2017-04-20T01:39:35.594Z,1011.39
2017-04-20T01:40:35.620Z,1011.4
2017-04-20T01:41:35.648Z,1011.43
2017-04-20T01:42:35.672Z,1011.41
2017-04-20T01:43:35.698Z,1011.37
2017-04-20T01:44:35.724Z,1011.37
2017-04-20T01:45:35.755Z,1011.39
2017-04-20T01:46:35.776Z,1011.39
2017-04-20T01:47:35.810Z,1011.38
2017-04-20T01:48:35.829Z,1011.42
2017-04-20T01:49:35.852Z,1011.41
2017-04-20T01:50:35.879Z,1011.39
2017-04-20T01:51:35.908Z,1011.44
2017-04-20T01:52:35.933Z,1011.39
2017-04-20T01:53:35.958Z,1011.37
2017-04-20T01:54:35.985Z,1011.38
2017-04-20T01:55:36.218Z,1011.41
2017-04-20T01:57:36.286Z,1011.44
2017-04-20T01:58:36.093Z,1011.45
2017-04-20T01:59:36.335Z,1011.42
2017-04-20T02:00:36.137Z,1011.42
2017-04-20T02:01:36.201Z,1011.48
2017-04-20T02:02:36.193Z,1011.43
2017-04-20T02:03:36.216Z,1011.45
2017-04-20T02:04:36.239Z,1011.41
2017-04-20T02:05:36.271Z,1011.43
2017-04-20T02:06:36.296Z,1011.4
2017-04-20T02:07:36.320Z,1011.41
2017-04-20T02:08:36.344Z,1011.42
2017-04-20T02:09:36.373Z,1011.42
2017-04-20T02:10:36.398Z,1011.39
2017-04-20T02:11:36.422Z,1011.41
2017-04-20T02:12:36.447Z,1011.42
2017-04-20T02:13:36.476Z,1011.43
2017-04-20T02:14:36.500Z,1011.42
2017-04-20T02:15:36.774Z,1011.43
2017-04-20T02:16:36.554Z,1011.41
2017-04-20T02:17:36.579Z,1011.44
2017-04-20T02:18:36.605Z,1011.43
2017-04-20T02:19:36.628Z,1011.4
2017-04-20T02:20:36.910Z,1011.38
2017-04-20T02:21:36.703Z,1011.43
2017-04-20T02:22:36.707Z,1011.39
2017-04-20T02:23:36.736Z,1011.37
2017-04-20T02:24:36.761Z,1011.39
2017-04-20T02:25:36.784Z,1011.4
2017-04-20T02:26:36.809Z,1011.41
2017-04-20T02:27:36.839Z,1011.39
2017-04-20T02:28:36.863Z,1011.42
2017-04-20T02:29:36.888Z,1011.45
2017-04-20T02:30:36.911Z,1011.42
2017-04-20T02:31:36.942Z,1011.38
2017-04-20T02:32:36.966Z,1011.39
2017-04-20T02:33:36.996Z,1011.42
2017-04-20T02:34:37.011Z,1011.42
2017-04-20T02:35:37.045Z,1011.42
2017-04-20T02:36:37.068Z,1011.41
2017-04-20T02:37:37.094Z,1011.39
2017-04-20T02:38:37.123Z,1011.34
2017-04-20T02:39:37.148Z,1011.34
2017-04-20T02:40:37.171Z,1011.37
2017-04-20T02:41:37.196Z,1011.33
2017-04-20T02:42:37.222Z,1011.36
2017-04-20T02:43:37.250Z,1011.32
2017-04-20T02:44:37.275Z,1011.33
2017-04-20T02:45:37.295Z,1011.33
2017-04-20T02:46:37.324Z,1011.28
2017-04-20T02:47:37.354Z,1011.27
2017-04-20T02:48:37.379Z,1011.29
2017-04-20T02:49:37.403Z,1011.32
2017-04-20T02:50:37.428Z,1011.27
2017-04-20T02:51:37.456Z,1011.28
2017-04-20T02:52:37.481Z,1011.28
2017-04-20T02:53:37.506Z,1011.31
2017-04-20T02:54:37.534Z,1011.29
2017-04-20T02:55:37.559Z,1011.32
2017-04-20T02:56:37.583Z,1011.33
2017-04-20T02:57:37.610Z,1011.38
2017-04-20T02:58:37.633Z,1011.39
2017-04-20T02:59:37.658Z,1011.37
2017-04-20T03:00:37.688Z,1011.36
2017-04-20T03:01:37.711Z,1011.37
2017-04-20T03:02:37.736Z,1011.39
2017-04-20T03:03:37.762Z,1011.37
2017-04-20T03:04:37.790Z,1011.38
2017-04-20T03:05:37.814Z,1011.37
2017-04-20T03:06:37.835Z,1011.36
2017-04-20T03:07:37.861Z,1011.39
2017-04-20T03:08:37.894Z,1011.39
2017-04-20T03:09:37.917Z,1011.44
2017-04-20T03:10:37.943Z,1011.45
2017-04-20T03:11:37.967Z,1011.43
2017-04-20T03:12:37.996Z,1011.44
2017-04-20T03:13:38.028Z,1011.43
2017-04-20T03:14:38.042Z,1011.42
2017-04-20T03:15:38.071Z,1011.44
2017-04-20T03:16:38.098Z,1011.42
2017-04-20T03:17:38.126Z,1011.42
2017-04-20T03:18:38.145Z,1011.43
2017-04-20T03:19:38.173Z,1011.43
2017-04-20T03:20:38.194Z,1011.4
2017-04-20T03:21:38.228Z,1011.37
2017-04-20T03:22:38.250Z,1011.37
2017-04-20T03:23:38.277Z,1011.39
2017-04-20T03:24:38.297Z,1011.43
2017-04-20T03:25:38.330Z,1011.43
2017-04-20T03:26:38.354Z,1011.42
2017-04-20T03:27:38.378Z,1011.4
2017-04-20T03:28:38.404Z,1011.39
2017-04-20T03:29:38.429Z,1011.41
2017-04-20T03:30:38.461Z,1011.46
2017-04-20T03:31:38.484Z,1011.41
2017-04-20T03:32:38.506Z,1011.42
2017-04-20T03:33:38.532Z,1011.38
2017-04-20T03:34:38.560Z,1011.4
2017-04-20T03:35:38.586Z,1011.41
2017-04-20T03:36:38.605Z,1011.41
2017-04-20T03:37:38.634Z,1011.43
2017-04-20T03:38:38.663Z,1011.42
2017-04-20T03:39:38.685Z,1011.42
2017-04-20T03:40:38.713Z,1011.48
2017-04-20T03:41:38.737Z,1011.51
2017-04-20T03:42:38.762Z,1011.56
2017-04-20T03:43:38.791Z,1011.52
2017-04-20T03:44:38.816Z,1011.59
2017-04-20T03:45:38.841Z,1011.56
2017-04-20T03:46:38.865Z,1011.58
2017-04-20T03:47:38.891Z,1011.6
2017-04-20T03:48:38.918Z,1011.58
2017-04-20T03:49:38.948Z,1011.57
2017-04-20T03:50:38.968Z,1011.62
2017-04-20T03:51:38.993Z,1011.61
2017-04-20T03:52:39.021Z,1011.59
2017-04-20T03:53:39.047Z,1011.61
2017-04-20T03:54:39.072Z,1011.59
2017-04-20T03:55:39.097Z,1011.57
2017-04-20T03:56:39.373Z,1011.58
2017-04-20T03:57:39.141Z,1011.61
2017-04-20T03:58:39.174Z,1011.56
2017-04-20T03:59:39.198Z,1011.53
2017-04-20T04:00:39.224Z,1011.56
2017-04-20T04:01:39.500Z,1011.57
2017-04-20T04:02:39.276Z,1011.55
2017-04-20T04:03:39.305Z,1011.56
2017-04-20T04:04:39.326Z,1011.54
2017-04-20T04:05:39.352Z,1011.52
2017-04-20T04:06:39.628Z,1011.53
2017-04-20T04:07:39.405Z,1011.5
2017-04-20T04:08:39.431Z,1011.5
2017-04-20T04:09:39.454Z,1011.51
2017-04-20T04:10:39.479Z,1011.52
2017-04-20T04:11:39.751Z,1011.53
2017-04-20T04:12:39.528Z,1011.52
2017-04-20T04:13:39.557Z,1011.53
2017-04-20T04:14:39.582Z,1011.58
2017-04-20T04:15:39.602Z,1011.5
2017-04-20T04:16:39.883Z,1011.52
2017-04-20T04:17:39.656Z,1011.54
2017-04-20T04:18:39.686Z,1011.55
2017-04-20T04:19:39.706Z,1011.56
2017-04-20T04:20:39.735Z,1011.61
2017-04-20T04:21:40.010Z,1011.66
2017-04-20T04:22:39.783Z,1011.61
2017-04-20T04:23:39.808Z,1011.67
2017-04-20T04:24:39.837Z,1011.67
2017-04-20T04:25:39.859Z,1011.68
2017-04-20T04:26:39.887Z,1011.68
2017-04-20T04:27:39.913Z,1011.72
2017-04-20T04:28:39.936Z,1011.75
2017-04-20T04:29:39.965Z,1011.71
2017-04-20T04:30:39.990Z,1011.71
2017-04-20T04:31:40.016Z,1011.73
2017-04-20T04:32:40.041Z,1011.73
2017-04-20T04:33:40.064Z,1011.75
2017-04-20T04:34:40.090Z,1011.73
2017-04-20T04:35:40.119Z,1011.76
2017-04-20T04:36:40.143Z,1011.78
2017-04-20T04:37:40.168Z,1011.8
2017-04-20T04:38:40.192Z,1011.79
2017-04-20T04:39:40.218Z,1011.83
2017-04-20T04:40:40.245Z,1011.83
2017-04-20T04:41:40.270Z,1011.82
2017-04-20T04:42:40.297Z,1011.77
2017-04-20T04:43:40.320Z,1011.8
2017-04-20T04:44:40.345Z,1011.77
2017-04-20T04:45:40.372Z,1011.75
2017-04-20T04:46:40.399Z,1011.82
2017-04-20T04:47:40.419Z,1011.85
2017-04-20T04:48:40.448Z,1011.83
2017-04-20T04:49:40.473Z,1011.82
2017-04-20T04:50:40.499Z,1011.8
2017-04-20T04:51:40.522Z,1011.82
2017-04-20T04:52:40.552Z,1011.83
2017-04-20T04:53:40.571Z,1011.85
2017-04-20T04:54:40.601Z,1011.86
2017-04-20T04:55:40.625Z,1011.86
2017-04-20T04:56:40.653Z,1011.92
2017-04-20T04:57:40.677Z,1011.89
2017-04-20T04:58:40.701Z,1011.89
2017-04-20T04:59:40.730Z,1011.95
2017-04-20T05:00:40.758Z,1012
2017-04-20T05:01:40.788Z,1012
2017-04-20T05:02:40.805Z,1011.99
2017-04-20T05:03:40.832Z,1012.02
2017-04-20T05:04:40.855Z,1012.07
2017-04-20T05:05:40.884Z,1012.07
2017-04-20T05:06:40.910Z,1012.06
2017-04-20T05:07:40.935Z,1012.12
2017-04-20T05:08:40.960Z,1012.08
2017-04-20T05:09:40.992Z,1012.06
2017-04-20T05:10:41.012Z,1012.07
2017-04-20T05:11:41.037Z,1012.02
2017-04-20T05:12:41.061Z,1012.1
2017-04-20T05:13:41.088Z,1012.09
2017-04-20T05:14:41.114Z,1012.03
2017-04-20T05:15:41.136Z,1012.04
2017-04-20T05:16:41.164Z,1012.05
2017-04-20T05:17:41.189Z,1012.07
2017-04-20T05:18:41.214Z,1012.1
2017-04-20T05:19:41.242Z,1012.1
2017-04-20T05:20:41.267Z,1012.09
2017-04-20T05:21:41.296Z,1012.13
2017-04-20T05:22:41.318Z,1012.14
2017-04-20T05:23:41.346Z,1012.07
2017-04-20T05:24:41.371Z,1012.11
2017-04-20T05:25:41.396Z,1012.15
2017-04-20T05:26:41.417Z,1012.12
2017-04-20T05:27:41.449Z,1012.12
2017-04-20T05:28:41.474Z,1012.17
2017-04-20T05:29:41.499Z,1012.14
2017-04-20T05:30:41.523Z,1012.11
2017-04-20T05:31:41.555Z,1012.14
2017-04-20T05:32:41.577Z,1012.07
2017-04-20T05:33:41.602Z,1012.09
2017-04-20T05:34:41.626Z,1012.09
2017-04-20T05:35:41.652Z,1012.1
2017-04-20T05:36:41.680Z,1012.08
2017-04-20T05:37:41.708Z,1012.1
2017-04-20T05:38:41.731Z,1012.08
2017-04-20T05:39:41.775Z,1012.08
2017-04-20T05:40:41.783Z,1012.13
2017-04-20T05:41:41.809Z,1012.12
2017-04-20T05:42:41.833Z,1012.18
2017-04-20T05:43:41.857Z,1012.21
2017-04-20T05:44:41.886Z,1012.17
2017-04-20T05:45:41.909Z,1012.19
2017-04-20T05:46:41.935Z,1012.2
2017-04-20T05:47:41.960Z,1012.21
2017-04-20T05:48:41.990Z,1012.19
2017-04-20T05:49:42.015Z,1012.21
2017-04-20T05:50:42.038Z,1012.19
2017-04-20T05:51:42.064Z,1012.21
2017-04-20T05:52:42.345Z,1012.18
2017-04-20T05:53:42.116Z,1012.16
2017-04-20T05:54:42.142Z,1012.25
2017-04-20T05:55:42.171Z,1012.24
2017-04-20T05:56:42.196Z,1012.29
2017-04-20T05:57:42.470Z,1012.26
2017-04-20T05:58:42.243Z,1012.22
2017-04-20T05:59:42.273Z,1012.25
2017-04-20T06:00:42.299Z,1012.24
2017-04-20T06:01:42.322Z,1012.22
2017-04-20T06:02:42.595Z,1012.24
2017-04-20T06:03:42.376Z,1012.23
2017-04-20T06:04:42.402Z,1012.23
2017-04-20T06:05:42.426Z,1012.21
2017-04-20T06:06:42.455Z,1012.26
2017-04-20T06:07:42.732Z,1012.3
2017-04-20T06:08:42.504Z,1012.33
2017-04-20T06:09:42.529Z,1012.32
2017-04-20T06:10:42.554Z,1012.31
2017-04-20T06:11:42.583Z,1012.33
2017-04-20T06:12:42.859Z,1012.33
2017-04-20T06:13:42.637Z,1012.32
2017-04-20T06:14:42.661Z,1012.33
2017-04-20T06:15:42.685Z,1012.34
2017-04-20T06:16:42.711Z,1012.4
2017-04-20T06:17:42.992Z,1012.37
2017-04-20T06:18:42.764Z,1012.36
2017-04-20T06:19:42.788Z,1012.37
2017-04-20T06:20:42.818Z,1012.33
2017-04-20T06:21:42.838Z,1012.39
2017-04-20T06:22:42.868Z,1012.4
2017-04-20T06:23:42.892Z,1012.4
2017-04-20T06:24:42.921Z,1012.41
2017-04-20T06:25:42.945Z,1012.41
2017-04-20T06:26:42.974Z,1012.46
2017-04-20T06:27:42.999Z,1012.46
2017-04-20T06:28:43.022Z,1012.49
2017-04-20T06:29:43.049Z,1012.48
2017-04-20T06:30:43.078Z,1012.46
2017-04-20T06:31:43.102Z,1012.47
2017-04-20T06:32:43.131Z,1012.45
2017-04-20T06:33:43.157Z,1012.47
2017-04-20T06:34:43.180Z,1012.49
2017-04-20T06:35:43.209Z,1012.49
2017-04-20T06:36:43.234Z,1012.48
2017-04-20T06:37:43.254Z,1012.51
2017-04-20T06:38:43.283Z,1012.51
2017-04-20T06:39:43.311Z,1012.49
2017-04-20T06:40:43.337Z,1012.54
2017-04-20T06:41:43.362Z,1012.52
2017-04-20T06:42:43.389Z,1012.5
2017-04-20T06:43:43.414Z,1012.49
2017-04-20T06:44:43.444Z,1012.54
2017-04-20T06:45:43.468Z,1012.51
2017-04-20T06:46:43.491Z,1012.54
2017-04-20T06:47:43.517Z,1012.54
2017-04-20T06:48:43.543Z,1012.56
2017-04-20T06:49:43.567Z,1012.57
2017-04-20T06:50:43.596Z,1012.59
2017-04-20T06:51:43.625Z,1012.59
2017-04-20T06:52:43.649Z,1012.63
2017-04-20T06:53:43.674Z,1012.53
2017-04-20T06:54:43.703Z,1012.58
2017-04-20T06:55:43.728Z,1012.58
2017-04-20T06:56:43.756Z,1012.56
2017-04-20T06:57:43.782Z,1012.59
2017-04-20T06:58:43.806Z,1012.6
2017-04-20T06:59:43.827Z,1012.62
2017-04-20T07:00:43.860Z,1012.62
2017-04-20T07:01:43.884Z,1012.62
2017-04-20T07:02:43.909Z,1012.65
2017-04-20T07:03:43.938Z,1012.66
2017-04-20T07:04:43.963Z,1012.62
2017-04-20T07:05:43.988Z,1012.61
2017-04-20T07:06:44.017Z,1012.63
2017-04-20T07:07:44.040Z,1012.6
2017-04-20T07:08:44.066Z,1012.66
2017-04-20T07:09:44.095Z,1012.59
2017-04-20T07:10:44.119Z,1012.66
2017-04-20T07:11:44.145Z,1012.68
2017-04-20T07:12:44.173Z,1012.7
2017-04-20T07:13:44.197Z,1012.68
2017-04-20T07:14:44.223Z,1012.72
2017-04-20T07:15:44.252Z,1012.69
2017-04-20T07:16:44.275Z,1012.68
2017-04-20T07:17:44.300Z,1012.72
2017-04-20T07:18:44.329Z,1012.7
2017-04-20T07:19:44.353Z,1012.71
2017-04-20T07:20:44.375Z,1012.7
2017-04-20T07:21:44.407Z,1012.67
2017-04-20T07:22:44.433Z,1012.71
2017-04-20T07:23:44.458Z,1012.72
2017-04-20T07:24:44.486Z,1012.77
2017-04-20T07:25:44.510Z,1012.75
2017-04-20T07:26:44.532Z,1012.74
2017-04-20T07:27:44.564Z,1012.74
2017-04-20T07:28:44.589Z,1012.77
2017-04-20T07:29:44.614Z,1012.79
2017-04-20T07:30:44.642Z,1012.74
2017-04-20T07:31:44.663Z,1012.73
2017-04-20T07:32:44.696Z,1012.79
2017-04-20T07:33:44.720Z,1012.78
2017-04-20T07:34:44.745Z,1012.73
2017-04-20T07:35:44.775Z,1012.72
2017-04-20T07:36:44.800Z,1012.72
2017-04-20T07:37:44.824Z,1012.71
2017-04-20T07:38:44.848Z,1012.77
2017-04-20T07:39:44.876Z,1012.77
2017-04-20T07:40:44.901Z,1012.72
2017-04-20T07:41:44.927Z,1012.74
2017-04-20T07:42:44.955Z,1012.76
2017-04-20T07:43:44.980Z,1012.78
2017-04-20T07:44:45.004Z,1012.75
2017-04-20T07:45:45.033Z,1012.79
2017-04-20T07:46:45.057Z,1012.77
2017-04-20T07:47:45.087Z,1012.74
2017-04-20T07:48:45.363Z,1012.7
2017-04-20T07:49:45.138Z,1012.76
2017-04-20T07:50:45.161Z,1012.72
2017-04-20T07:51:45.183Z,1012.74
2017-04-20T07:52:45.214Z,1012.77
2017-04-20T07:53:45.490Z,1012.71
2017-04-20T07:54:45.269Z,1012.73
2017-04-20T07:55:45.293Z,1012.74
2017-04-20T07:56:45.317Z,1012.74
2017-04-20T07:57:45.343Z,1012.78
2017-04-20T07:58:45.619Z,1012.76
2017-04-20T07:59:45.396Z,1012.79
2017-04-20T08:00:45.420Z,1012.81
2017-04-20T08:01:45.448Z,1012.78
2017-04-20T08:02:45.474Z,1012.82
2017-04-20T08:03:45.749Z,1012.79
2017-04-20T08:04:45.523Z,1012.79
2017-04-20T08:05:45.551Z,1012.75
2017-04-20T08:06:45.577Z,1012.76
2017-04-20T08:07:45.605Z,1012.8
2017-04-20T08:08:45.882Z,1012.73
2017-04-20T08:09:45.651Z,1012.77
2017-04-20T08:10:45.684Z,1012.83
2017-04-20T08:11:45.707Z,1012.77
2017-04-20T08:12:45.738Z,1012.73
2017-04-20T08:13:46.012Z,1012.77
2017-04-20T08:14:45.782Z,1012.84
2017-04-20T08:15:45.816Z,1012.76
2017-04-20T08:16:45.841Z,1012.8
2017-04-20T08:17:45.865Z,1012.76
2017-04-20T08:18:45.894Z,1012.84
2017-04-20T08:19:45.919Z,1012.83
2017-04-20T08:20:45.943Z,1012.87
2017-04-20T08:21:45.972Z,1012.86
2017-04-20T08:22:45.996Z,1012.84
2017-04-20T08:23:46.020Z,1012.86
2017-04-20T08:24:46.049Z,1012.91
2017-04-20T08:25:46.075Z,1012.92
2017-04-20T08:26:46.105Z,1012.88
2017-04-20T08:27:46.131Z,1012.87
2017-04-20T08:28:46.153Z,1012.86
2017-04-20T08:29:46.183Z,1012.91
2017-04-20T08:30:46.207Z,1012.84
2017-04-20T08:31:46.228Z,1012.85
2017-04-20T08:32:46.260Z,1012.84
2017-04-20T08:33:46.286Z,1012.85
2017-04-20T08:34:46.313Z,1012.85
2017-04-20T08:35:46.339Z,1012.87
2017-04-20T08:36:46.358Z,1012.8
2017-04-20T08:37:46.387Z,1012.76
2017-04-20T08:38:46.416Z,1012.8
2017-04-20T08:39:46.442Z,1012.85
2017-04-20T08:40:46.464Z,1012.81
2017-04-20T08:41:46.495Z,1012.84
2017-04-20T08:42:46.520Z,1012.82
2017-04-20T08:43:46.545Z,1012.86
2017-04-20T08:44:46.573Z,1012.87
2017-04-20T08:45:46.599Z,1012.83
2017-04-20T08:46:46.623Z,1012.78
2017-04-20T08:47:46.646Z,1012.86
2017-04-20T08:48:46.674Z,1012.83
2017-04-20T08:49:46.700Z,1012.85
2017-04-20T08:50:46.733Z,1012.86
2017-04-20T08:51:46.755Z,1012.84
2017-04-20T08:52:46.779Z,1012.87
2017-04-20T08:53:46.808Z,1012.85
2017-04-20T08:54:46.832Z,1012.84
2017-04-20T08:55:46.855Z,1012.75
2017-04-20T08:56:46.885Z,1012.79
2017-04-20T08:57:46.911Z,1012.76
2017-04-20T08:58:46.931Z,1012.74
2017-04-20T08:59:46.964Z,1012.82
2017-04-20T09:00:46.990Z,1012.8
2017-04-20T09:01:47.012Z,1012.83
2017-04-20T09:02:47.042Z,1012.85
2017-04-20T09:03:47.064Z,1012.81
2017-04-20T09:04:47.103Z,1012.85
2017-04-20T09:05:47.120Z,1012.81
2017-04-20T09:06:47.144Z,1012.79
2017-04-20T09:07:47.170Z,1012.76
2017-04-20T09:08:47.197Z,1012.75
2017-04-20T09:09:47.222Z,1012.75
2017-04-20T09:10:47.248Z,1012.73
2017-04-20T09:11:47.277Z,1012.7
2017-04-20T09:12:47.303Z,1012.72
2017-04-20T09:13:47.326Z,1012.77
2017-04-20T09:14:47.352Z,1012.77
2017-04-20T09:15:47.380Z,1012.78
2017-04-20T09:16:47.399Z,1012.81
2017-04-20T09:17:47.433Z,1012.81
2017-04-20T09:18:47.461Z,1012.84
2017-04-20T09:19:47.482Z,1012.85
2017-04-20T09:20:47.512Z,1012.84
2017-04-20T09:21:47.536Z,1012.84
2017-04-20T09:22:47.562Z,1012.93
2017-04-20T09:23:47.589Z,1012.92
2017-04-20T09:24:47.615Z,1012.86
2017-04-20T09:25:47.636Z,1012.88
2017-04-20T09:26:47.658Z,1012.84
2017-04-20T09:27:47.691Z,1012.83
2017-04-20T09:28:47.717Z,1012.78
2017-04-20T09:29:47.746Z,1012.79
2017-04-20T09:30:47.766Z,1012.88
2017-04-20T09:31:47.796Z,1012.85
2017-04-20T09:32:47.823Z,1012.82
2017-04-20T09:33:47.855Z,1012.83
2017-04-20T09:34:47.875Z,1012.86
2017-04-20T09:35:47.902Z,1012.81
2017-04-20T09:36:47.928Z,1012.88
2017-04-20T09:37:47.952Z,1012.9
2017-04-20T09:38:47.980Z,1012.86
2017-04-20T09:39:48.258Z,1012.87
2017-04-20T09:40:48.030Z,1012.8
2017-04-20T09:41:48.060Z,1012.84
2017-04-20T09:42:48.084Z,1012.92
2017-04-20T09:43:48.112Z,1012.85
2017-04-20T09:44:48.385Z,1012.87
2017-04-20T09:45:48.161Z,1012.78
2017-04-20T09:46:48.187Z,1012.82
2017-04-20T09:47:48.216Z,1012.8
2017-04-20T09:48:48.240Z,1012.8
2017-04-20T09:49:48.517Z,1012.76
2017-04-20T09:50:48.294Z,1012.66
2017-04-20T09:51:48.315Z,1012.73
2017-04-20T09:52:48.343Z,1012.73
2017-04-20T09:53:48.372Z,1012.73
2017-04-20T09:54:48.648Z,1012.75
2017-04-20T09:55:48.420Z,1012.72
2017-04-20T09:56:48.469Z,1012.72
2017-04-20T09:57:48.470Z,1012.7
2017-04-20T09:58:48.503Z,1012.65
2017-04-20T09:59:48.781Z,1012.68
2017-04-20T10:00:48.554Z,1012.65
2017-04-20T10:01:48.582Z,1012.7
2017-04-20T10:02:48.608Z,1012.66
2017-04-20T10:03:48.636Z,1012.64
2017-04-20T10:04:48.911Z,1012.62
2017-04-20T10:05:48.686Z,1012.62
2017-04-20T10:06:48.715Z,1012.59
2017-04-20T10:07:48.739Z,1012.59
2017-04-20T10:08:48.763Z,1012.57
2017-04-20T10:09:49.045Z,1012.53
2017-04-20T10:10:48.817Z,1012.58
2017-04-20T10:11:48.846Z,1012.53
2017-04-20T10:12:48.869Z,1012.59
2017-04-20T10:13:48.894Z,1012.43
2017-04-20T10:14:48.923Z,1012.5
2017-04-20T10:15:48.948Z,1012.45
2017-04-20T10:16:48.978Z,1012.44
2017-04-20T10:17:49.004Z,1012.45
2017-04-20T10:18:49.027Z,1012.44
2017-04-20T10:19:49.073Z,1012.44
2017-04-20T10:20:49.080Z,1012.4
2017-04-20T10:21:49.106Z,1012.42
2017-04-20T10:22:49.134Z,1012.42
2017-04-20T10:23:49.153Z,1012.43
2017-04-20T10:24:49.183Z,1012.41
2017-04-20T10:25:49.213Z,1012.41
2017-04-20T10:26:49.236Z,1012.43
2017-04-20T10:27:49.264Z,1012.39
2017-04-20T10:28:49.290Z,1012.37
2017-04-20T10:29:49.314Z,1012.41
2017-04-20T10:30:49.343Z,1012.39
2017-04-20T10:31:49.372Z,1012.37
2017-04-20T10:32:49.397Z,1012.4
2017-04-20T10:33:49.424Z,1012.42
2017-04-20T10:34:49.449Z,1012.4
2017-04-20T10:35:49.474Z,1012.4
2017-04-20T10:36:49.499Z,1012.41
2017-04-20T10:37:49.528Z,1012.39
2017-04-20T10:38:49.550Z,1012.36
2017-04-20T10:39:49.578Z,1012.38
2017-04-20T10:40:49.603Z,1012.36
2017-04-20T10:41:49.635Z,1012.38
2017-04-20T10:42:49.660Z,1012.35
2017-04-20T10:43:49.688Z,1012.33
2017-04-20T10:44:49.712Z,1012.3
2017-04-20T10:45:49.738Z,1012.32
2017-04-20T10:46:49.767Z,1012.3
2017-04-20T10:47:49.791Z,1012.28
2017-04-20T10:48:49.820Z,1012.34
2017-04-20T10:49:49.845Z,1012.31
2017-04-20T10:50:49.870Z,1012.3
2017-04-20T10:51:49.898Z,1012.31
2017-04-20T10:52:49.927Z,1012.28
2017-04-20T10:53:49.952Z,1012.25
2017-04-20T10:54:49.977Z,1012.3
2017-04-20T10:55:50.005Z,1012.33
2017-04-20T10:56:50.027Z,1012.3
2017-04-20T10:57:50.059Z,1012.39
2017-04-20T10:58:50.084Z,1012.33
2017-04-20T10:59:50.113Z,1012.33
2017-04-20T11:00:50.137Z,1012.31
2017-04-20T11:01:50.162Z,1012.31
2017-04-20T11:02:50.191Z,1012.31
2017-04-20T11:03:50.219Z,1012.27
2017-04-20T11:04:50.245Z,1012.28
2017-04-20T11:05:50.268Z,1012.27
2017-04-20T11:06:50.293Z,1012.2
2017-04-20T11:07:50.326Z,1012.24
2017-04-20T11:08:50.351Z,1012.29
2017-04-20T11:09:50.375Z,1012.23
2017-04-20T11:10:50.403Z,1012.24
2017-04-20T11:11:50.431Z,1012.23
2017-04-20T11:12:50.461Z,1012.21
2017-04-20T11:13:50.483Z,1012.21
2017-04-20T11:14:50.512Z,1012.2
2017-04-20T11:15:50.540Z,1012.16
2017-04-20T11:16:50.566Z,1012.2
2017-04-20T11:17:50.594Z,1012.19
2017-04-20T11:18:50.620Z,1012.18
2017-04-20T11:19:50.647Z,1012.17
2017-04-20T11:20:50.672Z,1012.15
2017-04-20T11:21:50.704Z,1012.14
2017-04-20T11:22:50.722Z,1012.13
2017-04-20T11:23:50.750Z,1012.09
2017-04-20T11:24:50.779Z,1012.16
2017-04-20T11:25:50.807Z,1012.19
2017-04-20T11:26:50.832Z,1012.19
2017-04-20T11:27:50.862Z,1012.16
2017-04-20T11:28:50.887Z,1012.13
2017-04-20T11:29:50.915Z,1012.2
2017-04-20T11:30:50.940Z,1012.17
2017-04-20T11:31:50.971Z,1012.12
2017-04-20T11:32:50.994Z,1012.13
2017-04-20T11:33:51.021Z,1012.11
2017-04-20T11:34:51.047Z,1012.14
2017-04-20T11:35:51.075Z,1012.12
2017-04-20T11:36:51.100Z,1012.14
2017-04-20T11:37:51.129Z,1012.07
2017-04-20T11:38:51.155Z,1012.09
2017-04-20T11:39:51.183Z,1012.08
2017-04-20T11:40:51.212Z,1012.07
2017-04-20T11:41:51.237Z,1012.06
2017-04-20T11:42:51.261Z,1012.02
2017-04-20T11:43:51.289Z,1012.02
2017-04-20T11:44:51.318Z,1012.02
2017-04-20T11:45:51.346Z,1012.03
2017-04-20T11:46:51.372Z,1012.06
2017-04-20T11:47:51.401Z,1012.06
2017-04-20T11:48:51.430Z,1012.08
2017-04-20T11:49:51.459Z,1011.99
2017-04-20T11:50:51.487Z,1012.04
2017-04-20T11:51:51.517Z,1011.98
2017-04-20T11:52:51.540Z,1012
2017-04-20T11:53:51.569Z,1011.98
2017-04-20T11:54:51.598Z,1011.94
2017-04-20T11:55:51.625Z,1012.03
2017-04-20T11:56:51.655Z,1011.98
2017-04-20T11:57:51.683Z,1011.97
2017-04-20T11:58:51.711Z,1011.95
2017-04-20T11:59:51.741Z,1011.99
2017-04-20T12:00:51.769Z,1011.99
2017-04-20T12:01:51.802Z,1011.97
2017-04-20T12:02:51.826Z,1011.97
2017-04-20T12:03:51.860Z,1011.96
2017-04-20T12:04:51.887Z,1011.99
2017-04-20T12:05:51.919Z,1011.98
2017-04-20T12:06:51.950Z,1012.04
2017-04-20T12:07:51.980Z,1012.05
2017-04-20T12:08:52.008Z,1012.07
2017-04-20T12:09:52.036Z,1012.08